Home > Products > Valid Products > MTR

000
SAUS41 KLWX 231158
MTRDMH
METAR KDMH 231154Z AUTO 14/M02 A3045 RMK AO1 SLP309 T01391022 10161
20117 52033





000
SAUS41 KLWX 231155
MTRNAK
METAR KNAK 231154Z AUTO 34010KT 10SM CLR 14/00 A3043 RMK AO2 SLP307
T01390000 10172 20111 51034





000
SAUS41 KLWX 231121
MTRRSP
METAR KRSP 231054Z AUTO 10SM CLR 07/M03 A3040 RMK AO2 SLP302
T00721033 $





000
SAUS41 KLWX 231100
MTRRYT
METAR KRYT 231053Z AUTO 00000KT 10SM CLR 07/M01 A3040 RMK AO2 SLP294
T00721011 $





000
SAUS41 KLWX 231100
MTRRYT
METAR KRYT 231053Z AUTO 00000KT 10SM CLR 07/M01 A3040 RMK AO2 SLP294
T00721011 $





000
SAUS41 KLWX 231058
MTRDMH
METAR KDMH 231054Z AUTO 12/00 A3042 RMK AO1 SLP299 T01220000





000
SAUS41 KLWX 231058
MTRDMH
METAR KDMH 231054Z AUTO 12/00 A3042 RMK AO1 SLP299 T01220000





000
SAUS41 KLWX 231055
MTRNAK
METAR KNAK 231054Z AUTO 29006KT 10SM CLR 13/02 A3041 RMK AO2 SLP299
T01280017





000
SAUS41 KLWX 231055
MTRNAK
METAR KNAK 231054Z AUTO 29006KT 10SM CLR 13/02 A3041 RMK AO2 SLP299
T01280017





000
SAUS41 KLWX 231021
MTRRSP
METAR KRSP 230954Z AUTO 10SM CLR 05/M03 A3038 RMK AO2 SLP294
T00501033 $





000
SAUS41 KLWX 231021
MTRRSP
METAR KRSP 230954Z AUTO 10SM CLR 05/M03 A3038 RMK AO2 SLP294
T00501033 $





000
SAUS41 KLWX 231000
MTRRYT
METAR KRYT 230953Z AUTO 00000KT 10SM CLR 04/M02 A3037 RMK AO2 SLP285
T00441017 $





000
SAUS41 KLWX 230958
MTRDMH
METAR KDMH 230954Z AUTO 12/M02 A3038 RMK AO1 SLP287 T01171017





000
SAUS41 KLWX 230955
MTRNAK
METAR KNAK 230954Z AUTO 28005KT 10SM CLR 11/M01 A3037 RMK AO2 SLP285
T01111011





000
SAUS41 KLWX 230955
MTRNAK
METAR KNAK 230954Z AUTO 28005KT 10SM CLR 11/M01 A3037 RMK AO2 SLP285
T01111011





000
SAUS41 KLWX 230921
MTRRSP
METAR KRSP 230854Z AUTO 10SM CLR 04/M02 A3035 RMK AO2 SLP283
T00441022 51020 $





000
SAUS41 KLWX 230900
MTRRYT
METAR KRYT 230853Z AUTO 00000KT 10SM CLR 04/M01 A3034 RMK AO2 SLP276
T00441011 53019 $





000
SAUS41 KLWX 230900
MTRRYT
METAR KRYT 230853Z AUTO 00000KT 10SM CLR 04/M01 A3034 RMK AO2 SLP276
T00441011 53019 $





000
SAUS41 KLWX 230858
MTRDMH
METAR KDMH 230854Z AUTO 13/M02 A3035 RMK AO1 SLP276 T01281022 51025





000
SAUS41 KLWX 230855
MTRNAK
METAR KNAK 230854Z AUTO 28006KT 10SM CLR 12/M01 A3033 RMK AO2 SLP274
T01221006 51026





000
SAUS41 KLWX 230855
MTRNAK
METAR KNAK 230854Z AUTO 28006KT 10SM CLR 12/M01 A3033 RMK AO2 SLP274
T01221006 51026





000
SAUS41 KLWX 230821
MTRRSP
METAR KRSP 230754Z AUTO 10SM CLR 05/M02 A3033 RMK AO2 SLP276
T00501017 $





000
SAUS41 KLWX 230800
MTRRYT
METAR KRYT 230753Z AUTO 00000KT 10SM CLR 06/M02 A3032 RMK AO2 SLP267
T00611017 $





000
SAUS41 KLWX 230800
MTRRYT
METAR KRYT 230753Z AUTO 00000KT 10SM CLR 06/M02 A3032 RMK AO2 SLP267
T00611017 $





000
SAUS41 KLWX 230758
MTRDMH
METAR KDMH 230754Z AUTO 13/M02 A3033 RMK AO1 SLP269 T01331022





000
SAUS41 KLWX 230755
MTRNAK
METAR KNAK 230754Z AUTO 28007KT 10SM CLR 14/M01 A3031 RMK AO2 SLP266
T01391006





000
SAUS41 KLWX 230721
MTRRSP
METAR KRSP 230654Z AUTO 10SM CLR 07/M04 A3030 RMK AO2 SLP267
T00671039 $





000
SAUS41 KLWX 230700
MTRRYT
METAR KRYT 230653Z AUTO 00000KT 10SM CLR 08/M03 A3029 RMK AO2 SLP255
T00831028 $





000
SAUS41 KLWX 230658
MTRDMH
METAR KDMH 230654Z AUTO 15/M03 A3030 RMK AO1 SLP260 T01501033





000
SAUS41 KLWX 230656
MTRNAK
METAR KNAK 230654Z AUTO 30008KT 10SM CLR 16/01 A3029 RMK AO2 SLP257
T01560006





000
SAUS41 KLWX 230621
MTRRSP
METAR KRSP 230554Z AUTO 10SM CLR 08/M04 A3028 RMK AO2 SLP260
T00781039 10150 20078 50012 $





000
SAUS41 KLWX 230600
MTRRYT
METAR KRYT 230553Z AUTO VRB04KT 10SM CLR 10/M02 A3029 RMK AO2 SLP253
T01001022 10183 20100 51020 $





000
SAUS41 KLWX 230600
MTRRYT
METAR KRYT 230553Z AUTO VRB04KT 10SM CLR 10/M02 A3029 RMK AO2 SLP253
T01001022 10183 20100 51020 $





000
SAUS41 KLWX 230558
MTRDMH
METAR KDMH 230554Z AUTO 16/M03 A3027 RMK AO1 SLP251 T01611028 10222
20161 51024





000
SAUS41 KLWX 230558
MTRDMH
METAR KDMH 230554Z AUTO 16/M03 A3027 RMK AO1 SLP251 T01611028 10222
20161 51024





000
SAUS41 KLWX 230556
MTRNAK
METAR KNAK 230554Z AUTO 33009KT 10SM CLR 17/01 A3026 RMK AO2 SLP248
T01720011 10217 20172 51024





000
SAUS41 KLWX 230556
MTRNAK
METAR KNAK 230554Z AUTO 33009KT 10SM CLR 17/01 A3026 RMK AO2 SLP248
T01720011 10217 20172 51024





000
SAUS41 KLWX 230521
MTRRSP
METAR KRSP 230454Z AUTO 10SM CLR 09/M03 A3028 RMK AO2 SLP260
T00941033 401940061 $





000
SAUS41 KLWX 230500
MTRRYT
METAR KRYT 230453Z AUTO 00000KT 10SM CLR 12/M02 A3028 RMK AO2 SLP252
T01171022 402170083 $





000
SAUS41 KLWX 230500
MTRRYT
METAR KRYT 230453Z AUTO 00000KT 10SM CLR 12/M02 A3028 RMK AO2 SLP252
T01171022 402170083 $





000
SAUS41 KLWX 230458
MTRDMH
METAR KDMH 230454Z AUTO 17/M03 A3027 RMK AO1 SLP249 T01721028
402440111





000
SAUS41 KLWX 230458
MTRDMH
METAR KDMH 230454Z AUTO 17/M03 A3027 RMK AO1 SLP249 T01721028
402440111





000
SAUS41 KLWX 230456
MTRNAK
METAR KNAK 230454Z AUTO 33013KT 10SM CLR 18/04 A3023 RMK AO2 SLP240
T01830039 402390100





000
SAUS41 KLWX 230456
MTRNAK
METAR KNAK 230454Z AUTO 33013KT 10SM CLR 18/04 A3023 RMK AO2 SLP240
T01830039 402390100





000
SAUS41 KLWX 230421
MTRRSP
METAR KRSP 230354Z AUTO 10SM CLR 11/M02 A3026 RMK AO2 SLP251
T01061017 $





000
SAUS41 KLWX 230421
MTRRSP
METAR KRSP 230354Z AUTO 10SM CLR 11/M02 A3026 RMK AO2 SLP251
T01061017 $





000
SAUS41 KLWX 230400
MTRRYT
METAR KRYT 230353Z AUTO 00000KT 10SM CLR 13/M02 A3026 RMK AO2 SLP243
T01331022 $





000
SAUS41 KLWX 230358
MTRDMH
METAR KDMH 230354Z AUTO 18/00 A3023 RMK AO1 SLP238 T01830000





000
SAUS41 KLWX 230358
MTRDMH
METAR KDMH 230354Z AUTO 18/00 A3023 RMK AO1 SLP238 T01830000





000
SAUS41 KLWX 230355
MTRNAK
METAR KNAK 230354Z AUTO 32010KT 10SM CLR 19/05 A3022 RMK AO2 SLP234
T01890050





000
SAUS41 KLWX 230355
MTRNAK
METAR KNAK 230354Z AUTO 32010KT 10SM CLR 19/05 A3022 RMK AO2 SLP234
T01890050





000
SAUS41 KLWX 230322
MTRRSP
METAR KRSP 230254Z AUTO 10SM CLR 12/M03 A3025 RMK AO2 SLP248
T01171028 53033 $





000
SAUS41 KLWX 230322
MTRRSP
METAR KRSP 230254Z AUTO 10SM CLR 12/M03 A3025 RMK AO2 SLP248
T01171028 53033 $





000
SAUS41 KLWX 230300
MTRRYT
METAR KRYT 230253Z AUTO VRB03KT 10SM CLR 15/M03 A3023 RMK AO2 SLP232
T01501028 53037 $





000
SAUS41 KLWX 230300
MTRRYT
METAR KRYT 230253Z AUTO VRB03KT 10SM CLR 15/M03 A3023 RMK AO2 SLP232
T01501028 53037 $





000
SAUS41 KLWX 230258
MTRDMH
METAR KDMH 230254Z AUTO 19/03 A3020 RMK AO1 SLP227 T01940028 53034





000
SAUS41 KLWX 230258
MTRDMH
METAR KDMH 230254Z AUTO 19/03 A3020 RMK AO1 SLP227 T01940028 53034





000
SAUS41 KLWX 230255
MTRNAK
METAR KNAK 230254Z AUTO 28006KT 10SM CLR 19/06 A3019 RMK AO2 SLP224
T01940061 53029





000
SAUS41 KLWX 230255
MTRNAK
METAR KNAK 230254Z AUTO 28006KT 10SM CLR 19/06 A3019 RMK AO2 SLP224
T01940061 53029





000
SAUS41 KLWX 230221
MTRRSP
METAR KRSP 230154Z AUTO 10SM CLR 13/M03 A3020 RMK AO2 SLP232
T01331033 $





000
SAUS41 KLWX 230221
MTRRSP
METAR KRSP 230154Z AUTO 10SM CLR 13/M03 A3020 RMK AO2 SLP232
T01331033 $





000
SAUS41 KLWX 230200
MTRRYT
METAR KRYT 230153Z AUTO VRB05KT 10SM CLR 17/M03 A3018 RMK AO2 SLP216
T01671033 $





000
SAUS41 KLWX 230158
MTRDMH
METAR KDMH 230154Z AUTO 21/06 A3016 RMK AO1 SLP213 T02060061





000
SAUS41 KLWX 230156
MTRNAK
METAR KNAK 230154Z AUTO 28006KT 10SM CLR 20/06 A3015 RMK AO2 SLP212
T02000056





000
SAUS41 KLWX 230156
MTRNAK
METAR KNAK 230154Z AUTO 28006KT 10SM CLR 20/06 A3015 RMK AO2 SLP212
T02000056





000
SAUS41 KLWX 230121
MTRRSP
METAR KRSP 230054Z AUTO 10SM CLR 14/02 A3017 RMK AO2 SLP222
T01390022 $





000
SAUS41 KLWX 230100
MTRRYT
METAR KRYT 230053Z AUTO 32007KT 240V030 10SM CLR 18/02 A3014 RMK AO2
SLP203 T01780022 $





000
SAUS41 KLWX 230100
MTRRYT
METAR KRYT 230053Z AUTO 32007KT 240V030 10SM CLR 18/02 A3014 RMK AO2
SLP203 T01780022 $





000
SAUS41 KLWX 230058
MTRDMH
METAR KDMH 230054Z AUTO 21/06 A3012 RMK AO1 SLP200 T02110056





000
SAUS41 KLWX 230058
MTRDMH
METAR KDMH 230054Z AUTO 21/06 A3012 RMK AO1 SLP200 T02110056





000
SAUS41 KLWX 230055
MTRNAK
METAR KNAK 230054Z AUTO 27004KT 10SM CLR 21/05 A3012 RMK AO2 SLP201
T02060050





000
SAUS41 KLWX 230055
MTRNAK
METAR KNAK 230054Z AUTO 27004KT 10SM CLR 21/05 A3012 RMK AO2 SLP201
T02060050





000
SAUS41 KLWX 230021
MTRRSP
METAR KRSP 222354Z AUTO 10SM FEW060 15/07 A3014 RMK AO2 SLP213
T01500067 10194 20150 53019 $





000
SAUS41 KLWX 230021
MTRRSP
METAR KRSP 222354Z AUTO 10SM FEW060 15/07 A3014 RMK AO2 SLP213
T01500067 10194 20150 53019 $





000
SAUS41 KLWX 230000
MTRRYT
METAR KRYT 222353Z AUTO VRB03KT 10SM CLR 18/07 A3011 RMK AO2 SLP194
60000 T01830067 10217 20183 53019 $





000
SAUS41 KLWX 230000
MTRRYT
METAR KRYT 222353Z AUTO VRB03KT 10SM CLR 18/07 A3011 RMK AO2 SLP194
60000 T01830067 10217 20183 53019 $





000
SAUS41 KLWX 222358
MTRDMH
METAR KDMH 222354Z AUTO 22/05 A3010 RMK AO1 SLP193 T02220050 10244
20222 53018





000
SAUS41 KLWX 222358
MTRDMH
METAR KDMH 222354Z AUTO 22/05 A3010 RMK AO1 SLP193 T02220050 10244
20222 53018





000
SAUS41 KLWX 222355
MTRNAK
METAR KNAK 222354Z AUTO 29005KT 10SM FEW095 22/05 A3010 RMK AO2
SLP195 T02170050 10239 20217 53015





000
SAUS41 KLWX 222355
MTRNAK
METAR KNAK 222354Z AUTO 29005KT 10SM FEW095 22/05 A3010 RMK AO2
SLP195 T02170050 10239 20217 53015





000
SAUS41 KLWX 222321
MTRRSP
METAR KRSP 222254Z AUTO 10SM BKN060 16/06 A3012 RMK AO2 SLP206
T01610061 $





000
SAUS41 KLWX 222321
MTRRSP
METAR KRSP 222254Z AUTO 10SM BKN060 16/06 A3012 RMK AO2 SLP206
T01610061 $





000
SAUS41 KLWX 222300
MTRRYT
METAR KRYT 222253Z AUTO VRB05KT 10SM FEW070 SCT090 BKN110 18/08
A3009 RMK AO2 RAB40E51 SLP187 P0000 T01830083 $





000
SAUS41 KLWX 222258
MTRDMH
METAR KDMH 222254Z AUTO 23/04 A3008 RMK AO1 SLP184 T02280039





000
SAUS41 KLWX 222256
MTRNAK
METAR KNAK 222254Z AUTO 29010G17KT 10SM BKN110 23/04 A3008 RMK AO2
SLP186 T02280039





000
SAUS41 KLWX 222221
MTRRSP
METAR KRSP 222154Z AUTO 10SM FEW055 17/06 A3010 RMK AO2 SLP199
T01720056 $





000
SAUS41 KLWX 222221
MTRRSP
METAR KRSP 222154Z AUTO 10SM FEW055 17/06 A3010 RMK AO2 SLP199
T01720056 $





000
SAUS41 KLWX 222216
MTRNAK
SPECI KNAK 222215Z AUTO 29008G19KT 10SM FEW005 23/04 A3006 RMK AO2
T02330044





000
SAUS41 KLWX 222216
MTRNAK
SPECI KNAK 222215Z AUTO 29008G19KT 10SM FEW005 23/04 A3006 RMK AO2
T02330044





000
SAUS41 KLWX 222200
MTRRYT
METAR KRYT 222153Z AUTO VRB04G14KT 10SM FEW075 SCT095 19/05 A3008
RMK AO2 SLP183 T01940050 $





000
SAUS41 KLWX 222158
MTRDMH
METAR KDMH 222154Z AUTO 23/03 A3006 RMK AO1 SLP178 T02330033





000
SAUS41 KLWX 222155
MTRNAK
METAR KNAK 222154Z AUTO 28009G19KT 10SM CLR 23/04 A3006 RMK AO2
SLP180 T02330039





000
SAUS41 KLWX 222121
MTRRSP
METAR KRSP 222054Z AUTO 10SM FEW070 18/06 A3008 RMK AO2 SLP192
T01830056 53005 $





000
SAUS41 KLWX 222100
MTRRYT
METAR KRYT 222053Z AUTO VRB05KT 10SM SCT070 BKN085 21/06 A3006 RMK
AO2 SLP175 60000 T02060056 53002 $





000
SAUS41 KLWX 222058
MTRDMH
METAR KDMH 222054Z AUTO 24/03 A3005 RMK AO1 SLP175 T02440033 56006





000
SAUS41 KLWX 222055
MTRNAK
METAR KNAK 222054Z AUTO 29011G20KT 10SM FEW095 23/05 A3006 RMK AO2
SLP180 T02280050 56006





000
SAUS41 KLWX 222021
MTRRSP
METAR KRSP 221954Z AUTO 10SM FEW100 19/05 A3007 RMK AO2 SLP189
T01890050 $





000
SAUS41 KLWX 222000
MTRRYT
METAR KRYT 221953Z AUTO VRB06G15KT 10SM FEW030 21/06 A3005 RMK AO2
RAB31E40 SLP173 P0000 T02060061 $





000
SAUS41 KLWX 221958
MTRDMH
METAR KDMH 221954Z AUTO 24/04 A3005 RMK AO1 SLP177 T02390044





000
SAUS41 KLWX 221955
MTRNAK
METAR KNAK 221954Z AUTO 27011G19KT 240V300 10SM SCT085 23/04 A3006
RMK AO2 SLP182 T02280044





000
SAUS41 KLWX 221955
MTRNAK
METAR KNAK 221954Z AUTO 27011G19KT 240V300 10SM SCT085 23/04 A3006
RMK AO2 SLP182 T02280044





000
SAUS41 KLWX 221921
MTRRSP
METAR KRSP 221854Z AUTO 10SM FEW065 SCT090 19/04 A3007 RMK AO2
SLP189 T01890044 $





000
SAUS41 KLWX 221921
MTRRSP
METAR KRSP 221854Z AUTO 10SM FEW065 SCT090 19/04 A3007 RMK AO2
SLP189 T01890044 $





000
SAUS41 KLWX 221900
MTRRYT
METAR KRYT 221853Z AUTO 28007G21KT 220V320 10SM FEW070 SCT100 21/04
A3005 RMK AO2 SLP173 T02110039 $





000
SAUS41 KLWX 221900
MTRRYT
METAR KRYT 221853Z AUTO 28007G21KT 220V320 10SM FEW070 SCT100 21/04
A3005 RMK AO2 SLP173 T02110039 $





000
SAUS41 KLWX 221858
MTRDMH
METAR KDMH 221854Z AUTO 23/04 A3006 RMK AO1 SLP177 T02280039





000
SAUS41 KLWX 221858
MTRDMH
METAR KDMH 221854Z AUTO 23/04 A3006 RMK AO1 SLP177 T02280039





000
SAUS41 KLWX 221855
MTRNAK
METAR KNAK 221854Z AUTO 29011G17KT 240V320 10SM CLR 23/07 A3007 RMK
AO2 SLP184 T02280067





000
SAUS41 KLWX 221855
MTRNAK
METAR KNAK 221854Z AUTO 29011G17KT 240V320 10SM CLR 23/07 A3007 RMK
AO2 SLP184 T02280067





000
SAUS41 KLWX 221821
MTRRSP
METAR KRSP 221754Z AUTO 10SM CLR 19/04 A3007 RMK AO2 SLP186
T01890044 10189 20089 58008 $





000
SAUS41 KLWX 221821
MTRRSP
METAR KRSP 221754Z AUTO 10SM CLR 19/04 A3007 RMK AO2 SLP186
T01890044 10189 20089 58008 $





000
SAUS41 KLWX 221800
MTRRYT
METAR KRYT 221753Z AUTO 27008G20KT 10SM FEW080 21/06 A3005 RMK AO2
SLP173 T02060056 10206 20111 58009 $





000
SAUS41 KLWX 221800
MTRRYT
METAR KRYT 221753Z AUTO 27008G20KT 10SM FEW080 21/06 A3005 RMK AO2
SLP173 T02060056 10206 20111 58009 $





000
SAUS41 KLWX 221758
MTRDMH
METAR KDMH 221754Z AUTO 22/04 A3007 RMK AO1 SLP181 T02220044 10222
20133 50000





000
SAUS41 KLWX 221758
MTRDMH
METAR KDMH 221754Z AUTO 22/04 A3007 RMK AO1 SLP181 T02220044 10222
20133 50000





000
SAUS41 KLWX 221757
MTRNAK
METAR KNAK 221754Z AUTO 28012G16KT 10SM CLR 22/05 A3008 RMK AO2
SLP186 T02170050 10217 20122 50000





000
SAUS41 KLWX 221757
MTRNAK
METAR KNAK 221754Z AUTO 28012G16KT 10SM CLR 22/05 A3008 RMK AO2
SLP186 T02170050 10217 20122 50000





000
SAUS41 KLWX 221721
MTRRSP
METAR KRSP 221654Z AUTO 10SM FEW049 17/06 A3008 RMK AO2 SLP192
T01670056 $





000
SAUS41 KLWX 221721
MTRRSP
METAR KRSP 221654Z AUTO 10SM FEW049 17/06 A3008 RMK AO2 SLP192
T01670056 $





000
SAUS41 KLWX 221700
MTRRYT
METAR KRYT 221653Z AUTO VRB05G16KT 10SM CLR 19/06 A3006 RMK AO2
SLP177 T01940061 $





000
SAUS41 KLWX 221658
MTRDMH
METAR KDMH 221654Z AUTO 22/04 A3008 RMK AO1 SLP185 T02170039





000
SAUS41 KLWX 221658
MTRDMH
METAR KDMH 221654Z AUTO 22/04 A3008 RMK AO1 SLP185 T02170039





000
SAUS41 KLWX 221656
MTRNAK
METAR KNAK 221654Z AUTO 30009KT 10SM CLR 21/06 A3008 RMK AO2 SLP188
T02060056





000
SAUS41 KLWX 221656
MTRNAK
METAR KNAK 221654Z AUTO 30009KT 10SM CLR 21/06 A3008 RMK AO2 SLP188
T02060056





000
SAUS41 KLWX 221621
MTRRSP
METAR KRSP 221554Z AUTO 10SM CLR 16/06 A3010 RMK AO2 SLP196
T01560056 $





000
SAUS41 KLWX 221621
MTRRSP
METAR KRSP 221554Z AUTO 10SM CLR 16/06 A3010 RMK AO2 SLP196
T01560056 $





000
SAUS41 KLWX 221600
MTRRYT
METAR KRYT 221553Z AUTO VRB06G14KT 10SM CLR 17/06 A3008 RMK AO2
SLP186 T01720061 $





000
SAUS41 KLWX 221558
MTRDMH
METAR KDMH 221554Z AUTO 21/05 A3008 RMK AO1 SLP187 T02110050





000
SAUS41 KLWX 221555
MTRNAK
METAR KNAK 221554Z AUTO 29008G16KT 260V330 10SM CLR 19/06 A3009 RMK
AO2 SLP190 T01940056





000
SAUS41 KLWX 221555
MTRNAK
METAR KNAK 221554Z AUTO 29008G16KT 260V330 10SM CLR 19/06 A3009 RMK
AO2 SLP190 T01940056





000
SAUS41 KLWX 221522
MTRRSP
METAR KRSP 221454Z AUTO 10SM CLR 14/05 A3010 RMK AO2 SLP197
T01390050 53011 $





000
SAUS41 KLWX 221500
MTRRYT
METAR KRYT 221453Z AUTO VRB06G15KT 10SM CLR 16/06 A3008 RMK AO2
SLP185 T01560061 51014 $





000
SAUS41 KLWX 221458
MTRDMH
METAR KDMH 221454Z AUTO 19/04 A3007 RMK AO1 SLP181 T01940039 51009





000
SAUS41 KLWX 221455
MTRNAK
METAR KNAK 221454Z AUTO 28004KT 10SM CLR 18/07 A3008 RMK AO2 SLP186
T01830072 51012





000
SAUS41 KLWX 221421
MTRRSP
METAR KRSP 221354Z AUTO 10SM CLR 12/05 A3007 RMK AO2 SLP192
T01220050 $





000
SAUS41 KLWX 221400
MTRRYT
METAR KRYT 221353Z AUTO VRB04G17KT 10SM CLR 14/06 A3006 RMK AO2
SLP181 T01390056 $





000
SAUS41 KLWX 221358
MTRDMH
METAR KDMH 221354Z AUTO 18/04 A3006 RMK AO1 SLP178 T01830044





000
SAUS41 KLWX 221355
MTRNAK
METAR KNAK 221354Z AUTO 29008KT 10SM CLR 16/07 A3007 RMK AO2 SLP184
T01610072





000
SAUS41 KLWX 221321
MTRRSP
METAR KRSP 221254Z AUTO 10SM CLR 11/05 A3006 RMK AO2 SLP188
T01110050 $





000
SAUS41 KLWX 221301
MTRRYT
METAR KRYT 221253Z AUTO VRB05G17KT 10SM CLR 12/05 A3006 RMK AO2
SLP181 T01220050 $





000
SAUS41 KLWX 221258
MTRDMH
METAR KDMH 221254Z AUTO 17/06 A3005 RMK AO1 SLP175 T01670061





000
SAUS41 KLWX 221255
MTRNAK
METAR KNAK 221254Z AUTO 30010KT 10SM CLR 14/07 A3006 RMK AO2 SLP180
T01390072





000
SAUS41 KLWX 221221
MTRRSP
METAR KRSP 221154Z AUTO 10SM CLR 09/05 A3006 RMK AO2 SLP189 70016
T00890050 10089 20061 53027 $





000
SAUS41 KLWX 221221
MTRRSP
METAR KRSP 221154Z AUTO 10SM CLR 09/05 A3006 RMK AO2 SLP189 70016
T00890050 10089 20061 53027 $





000
SAUS41 KLWX 221200
MTRRYT
METAR KRYT 221153Z AUTO VRB06KT 10SM CLR 11/04 A3004 RMK AO2 SLP174
70009 T01110044 10111 20083 53014 $





000
SAUS41 KLWX 221200
MTRRYT
METAR KRYT 221153Z AUTO VRB06KT 10SM CLR 11/04 A3004 RMK AO2 SLP174
70009 T01110044 10111 20083 53014 $





000
SAUS41 KLWX 221158
MTRDMH
METAR KDMH 221154Z AUTO 14/06 A3004 RMK AO1 SLP171 70010 T01390061
10139 20111 51018





000
SAUS41 KLWX 221158
MTRDMH
METAR KDMH 221154Z AUTO 14/06 A3004 RMK AO1 SLP171 70010 T01390061
10139 20111 51018





000
SAUS41 KLWX 221155
MTRNAK
METAR KNAK 221154Z AUTO 28008KT 10SM CLR 12/07 A3004 RMK AO2 SLP175
70031 T01220067 10122 20100 51019





000
SAUS41 KLWX 221155
MTRNAK
METAR KNAK 221154Z AUTO 28008KT 10SM CLR 12/07 A3004 RMK AO2 SLP175
70031 T01220067 10122 20100 51019





000
SAUS41 KLWX 221121
MTRRSP
METAR KRSP 221054Z AUTO 10SM CLR 07/04 A3002 RMK AO2 SLP177
T00720044 $





000
SAUS41 KLWX 221121
MTRRSP
METAR KRSP 221054Z AUTO 10SM CLR 07/04 A3002 RMK AO2 SLP177
T00720044 $





000
SAUS41 KLWX 221100
MTRRYT
METAR KRYT 221053Z AUTO 00000KT 10SM CLR 10/04 A3002 RMK AO2 SLP168
T01000044 $





000
SAUS41 KLWX 221100
MTRRYT
METAR KRYT 221053Z AUTO 00000KT 10SM CLR 10/04 A3002 RMK AO2 SLP168
T01000044 $





000
SAUS41 KLWX 221058
MTRDMH
METAR KDMH 221054Z AUTO 12/06 A3002 RMK AO1 SLP166 T01220061





000
SAUS41 KLWX 221058
MTRDMH
METAR KDMH 221054Z AUTO 12/06 A3002 RMK AO1 SLP166 T01220061





000
SAUS41 KLWX 221055
MTRNAK
METAR KNAK 221054Z AUTO 27007KT 10SM CLR 11/08 A3002 RMK AO2 SLP169
T01060078





000
SAUS41 KLWX 221021
MTRRSP
METAR KRSP 220954Z AUTO 9SM CLR 06/04 A3000 RMK AO2 SLP171 T00610044
$





000
SAUS41 KLWX 221000
MTRRYT
METAR KRYT 220953Z AUTO 00000KT 10SM CLR 09/04 A3001 RMK AO2 SLP166
T00940044 $





000
SAUS41 KLWX 221000
MTRRYT
METAR KRYT 220953Z AUTO 00000KT 10SM CLR 09/04 A3001 RMK AO2 SLP166
T00940044 $





000
SAUS41 KLWX 220958
MTRDMH
METAR KDMH 220954Z AUTO 11/06 A3001 RMK AO1 SLP161 T01110061





000
SAUS41 KLWX 220955
MTRNAK
METAR KNAK 220954Z AUTO 27005KT 10SM SCT070 10/08 A3001 RMK AO2
SLP164 T01000078





000
SAUS41 KLWX 220921
MTRRSP
METAR KRSP 220854Z AUTO 7SM CLR 06/05 A2998 RMK AO2 SLP162 T00610050
53005 $





000
SAUS41 KLWX 220900
MTRRYT
METAR KRYT 220853Z AUTO 00000KT 10SM CLR 09/06 A3000 RMK AO2 SLP160
T00890056 53009 $





000
SAUS41 KLWX 220858
MTRDMH
METAR KDMH 220854Z AUTO 12/07 A2998 RMK AO1 SLP153 T01170067 53011





000
SAUS41 KLWX 220855
MTRNAK
METAR KNAK 220854Z AUTO 26005KT 10SM CLR 11/08 A2999 RMK AO2 SLP156
T01060083 53014





000
SAUS41 KLWX 220855
MTRNAK
METAR KNAK 220854Z AUTO 26005KT 10SM CLR 11/08 A2999 RMK AO2 SLP156
T01060083 53014





000
SAUS41 KLWX 220821
MTRRSP
METAR KRSP 220754Z AUTO 6SM BR CLR 06/05 A2995 RMK AO2 SLP153
T00610050 $





000
SAUS41 KLWX 220800
MTRRYT
METAR KRYT 220753Z AUTO 00000KT 10SM CLR 09/06 A2998 RMK AO2 SLP156
T00940061 $





000
SAUS41 KLWX 220758
MTRDMH
METAR KDMH 220754Z AUTO 12/07 A2996 RMK AO1 SLP145 T01170072





000
SAUS41 KLWX 220755
MTRNAK
METAR KNAK 220754Z AUTO 28007KT 10SM CLR 11/08 A2996 RMK AO2 SLP146
T01110083





000
SAUS41 KLWX 220721
MTRRSP
METAR KRSP 220654Z AUTO 7SM BKN070 07/06 A2994 RMK AO2 SLP151
T00670056 $





000
SAUS41 KLWX 220721
MTRRSP
METAR KRSP 220654Z AUTO 7SM BKN070 07/06 A2994 RMK AO2 SLP151
T00670056 $





000
SAUS41 KLWX 220704
MTRRSP
SPECI KRSP 220637Z AUTO 5SM BR SCT003 OVC065 07/07 A2995 RMK AO2 $





000
SAUS41 KLWX 220704
MTRRSP
SPECI KRSP 220637Z AUTO 5SM BR SCT003 OVC065 07/07 A2995 RMK AO2 $





000
SAUS41 KLWX 220700
MTRRYT
METAR KRYT 220653Z AUTO VRB05KT 10SM OVC075 10/08 A2998 RMK AO2
SLP152 T01000078 $





000
SAUS41 KLWX 220700
MTRRYT
METAR KRYT 220653Z AUTO VRB05KT 10SM OVC075 10/08 A2998 RMK AO2
SLP152 T01000078 $





000
SAUS41 KLWX 220658
MTRDMH
METAR KDMH 220654Z AUTO 12/08 A2995 RMK AO1 SLP142 T01220083





000
SAUS41 KLWX 220658
MTRDMH
METAR KDMH 220654Z AUTO 12/08 A2995 RMK AO1 SLP142 T01220083





000
SAUS41 KLWX 220655
MTRNAK
METAR KNAK 220654Z AUTO 28006KT 10SM SCT060 11/09 A2994 RMK AO2
SLP140 T01110089





000
SAUS41 KLWX 220655
MTRNAK
METAR KNAK 220654Z AUTO 28006KT 10SM SCT060 11/09 A2994 RMK AO2
SLP140 T01110089





000
SAUS41 KLWX 220636
MTRRSP
SPECI KRSP 220609Z AUTO 4SM BR BKN003 OVC065 07/07 A2995 RMK AO2 $





000
SAUS41 KLWX 220636
MTRRSP
SPECI KRSP 220609Z AUTO 4SM BR BKN003 OVC065 07/07 A2995 RMK AO2 $





000
SAUS41 KLWX 220621
MTRRSP
METAR KRSP 220554Z AUTO 2 1/2SM BR OVC003 08/07 A2996 RMK AO2 CIG
001V008 SLP155 60011 T00780067 10089 20072 53003 $





000
SAUS41 KLWX 220608
MTRNAK
SPECI KNAK 220607Z AUTO 28005KT 9SM FEW029 OVC035 11/09 A2995 RMK
AO2 T01110089





000
SAUS41 KLWX 220608
MTRNAK
SPECI KNAK 220607Z AUTO 28005KT 9SM FEW029 OVC035 11/09 A2995 RMK
AO2 T01110089





000
SAUS41 KLWX 220600
MTRRYT
METAR KRYT 220553Z AUTO 00000KT 9SM BKN075 10/08 A2997 RMK AO2
SLP149 60007 T01000078 10111 20094 53004 $





000
SAUS41 KLWX 220600
MTRRYT
METAR KRYT 220553Z AUTO 00000KT 9SM BKN075 10/08 A2997 RMK AO2
SLP149 60007 T01000078 10111 20094 53004 $





000
SAUS41 KLWX 220558
MTRDMH
METAR KDMH 220554Z AUTO 13/08 A2995 RMK AO1 SLP142 T01280083 10128
20111 53003





000
SAUS41 KLWX 220556
MTRNAK
METAR KNAK 220554Z AUTO 27005KT 9SM BKN027 OVC037 11/09 A2995 RMK
AO2 SLP142 T01110089 10128 20100 53004





000
SAUS41 KLWX 220553
MTRRSP
SPECI KRSP 220526Z AUTO 2 1/2SM BR BKN003 BKN055 07/07 A2995 RMK AO2
$





000
SAUS41 KLWX 220530
MTRNAK
SPECI KNAK 220529Z AUTO 28005KT 9SM BKN027 OVC070 11/09 A2994 RMK
AO2 T01110089





000
SAUS41 KLWX 220530
MTRNAK
SPECI KNAK 220529Z AUTO 28005KT 9SM BKN027 OVC070 11/09 A2994 RMK
AO2 T01110089





000
SAUS41 KLWX 220521
MTRRSP
METAR KRSP 220454Z AUTO 6SM BR FEW005 BKN042 BKN055 08/07 A2994 RMK
AO2 SLP147 T00780067 401060072 $





000
SAUS41 KLWX 220521
MTRRSP
METAR KRSP 220454Z AUTO 6SM BR FEW005 BKN042 BKN055 08/07 A2994 RMK
AO2 SLP147 T00780067 401060072 $





000
SAUS41 KLWX 220505
MTRRSP
SPECI KRSP 220438Z AUTO 6SM BR FEW003 SCT007 OVC040 08/07 A2994 RMK
AO2 $





000
SAUS41 KLWX 220500
MTRRYT
METAR KRYT 220453Z AUTO 00000KT 10SM OVC049 11/08 A2997 RMK AO2
RAE0356 SLP150 P0000 T01060078 401220094 $





000
SAUS41 KLWX 220500
MTRRYT
METAR KRYT 220453Z AUTO 00000KT 10SM OVC049 11/08 A2997 RMK AO2
RAE0356 SLP150 P0000 T01060078 401220094 $





000
SAUS41 KLWX 220458
MTRDMH
METAR KDMH 220454Z AUTO 12/09 A2995 RMK AO1 SLP141 T01170089
401610094





000
SAUS41 KLWX 220458
MTRDMH
METAR KDMH 220454Z AUTO 12/09 A2995 RMK AO1 SLP141 T01170089
401610094





000
SAUS41 KLWX 220457
MTRRSP
SPECI KRSP 220430Z AUTO 5SM BR BKN007 BKN014 OVC038 08/07 A2994 RMK
AO2 CIG 003V010 $





000
SAUS41 KLWX 220457
MTRRSP
SPECI KRSP 220430Z AUTO 5SM BR BKN007 BKN014 OVC038 08/07 A2994 RMK
AO2 CIG 003V010 $





000
SAUS41 KLWX 220456
MTRNAK
METAR KNAK 220454Z AUTO 27004KT 8SM BKN070 11/08 A2995 RMK AO2
SLP143 T01060083 401610100





000
SAUS41 KLWX 220421
MTRRSP
METAR KRSP 220354Z AUTO 5SM BR BKN004 OVC012 08/07 A2996 RMK AO2
RAB0256E50 SLP156 P0009 T00830072 $





000
SAUS41 KLWX 220421
MTRRSP
METAR KRSP 220354Z AUTO 5SM BR BKN004 OVC012 08/07 A2996 RMK AO2
RAB0256E50 SLP156 P0009 T00830072 $





000
SAUS41 KLWX 220412
MTRRSP
SPECI KRSP 220345Z AUTO 3SM -RA BR BKN002 OVC009 08/07 A2996 RMK AO2
RAB0256 P0009 $





000
SAUS41 KLWX 220412
MTRRSP
SPECI KRSP 220345Z AUTO 3SM -RA BR BKN002 OVC009 08/07 A2996 RMK AO2
RAB0256 P0009 $





000
SAUS41 KLWX 220405
MTRRYT
SPECI KRYT 220358Z AUTO VRB03KT 9SM FEW006 SCT012 OVC036 11/08 A2996
RMK AO2 RAE56 P0000 $





000
SAUS41 KLWX 220405
MTRRYT
SPECI KRYT 220358Z AUTO VRB03KT 9SM FEW006 SCT012 OVC036 11/08 A2996
RMK AO2 RAE56 P0000 $





000
SAUS41 KLWX 220400
MTRRSP
SPECI KRSP 220333Z AUTO 1 1/4SM -RA BR OVC002 08/08 A2996 RMK AO2
RAB0256 P0008 $





000
SAUS41 KLWX 220358
MTRDMH
METAR KDMH 220354Z AUTO 12/08 A2994 RMK AO1 SLP139 T01170083





000
SAUS41 KLWX 220355
MTRNAK
METAR KNAK 220354Z AUTO 28006KT 9SM CLR 11/09 A2993 RMK AO2 SLP137
T01060089





000
SAUS41 KLWX 220350
MTRRYT
SPECI KRYT 220343Z AUTO 00000KT 2SM -RA BR FEW006 BKN009 OVC017
11/09 A2995 RMK AO2 RAB04 P0005 $





000
SAUS41 KLWX 220338
MTRRYT
SPECI KRYT 220331Z AUTO 00000KT 2SM -RA BR SCT007 BKN011 OVC022
10/09 A2995 RMK AO2 RAB04 P0004 $





000
SAUS41 KLWX 220338
MTRRYT
SPECI KRYT 220331Z AUTO 00000KT 2SM -RA BR SCT007 BKN011 OVC022
10/09 A2995 RMK AO2 RAB04 P0004 $





000
SAUS41 KLWX 220322
MTRNAK
SPECI KNAK 220321Z AUTO 28005KT 8SM FEW014 11/09 A2993 RMK AO2
T01110089





000
SAUS41 KLWX 220322
MTRNAK
SPECI KNAK 220321Z AUTO 28005KT 8SM FEW014 11/09 A2993 RMK AO2
T01110089





000
SAUS41 KLWX 220321
MTRRYT
SPECI KRYT 220317Z AUTO 00000KT 2SM -RA BR BKN009 OVC013 10/09 A2995
RMK AO2 RAB04 P0001 $





000
SAUS41 KLWX 220321
MTRRYT
SPECI KRYT 220317Z AUTO 00000KT 2SM -RA BR BKN009 OVC013 10/09 A2995
RMK AO2 RAB04 P0001 $





000
SAUS41 KLWX 220321
MTRRSP
METAR KRSP 220254Z AUTO 1/4SM FG VV001 09/08 A2995 RMK AO2
RAB19E28B44E53 SLP152 P0001 60002 T00890078 51004 $





000
SAUS41 KLWX 220306
MTRNAK
SPECI KNAK 220305Z AUTO 27006KT 9SM BKN014 11/09 A2993 RMK AO2
T01110089





000
SAUS41 KLWX 220306
MTRNAK
SPECI KNAK 220305Z AUTO 27006KT 9SM BKN014 11/09 A2993 RMK AO2
T01110089





000
SAUS41 KLWX 220300
MTRRYT
METAR KRYT 220253Z AUTO 00000KT 3SM BR BKN015 OVC023 11/09 A2995 RMK
AO2 SLP144 60002 T01060089 53005 $





000
SAUS41 KLWX 220258
MTRDMH
METAR KDMH 220254Z AUTO 12/08 A2994 RMK AO1 SLP139 T01170083 56003





000
SAUS41 KLWX 220255
MTRNAK
METAR KNAK 220254Z AUTO 28006KT 9SM BKN015 BKN047 11/09 A2993 RMK
AO2 SLP138 T01110089 55000





000
SAUS41 KLWX 220221
MTRRSP
METAR KRSP 220154Z AUTO 1/2SM FG VV001 09/08 A2995 RMK AO2 SLP152
T00890078 $





000
SAUS41 KLWX 220200
MTRRYT
METAR KRYT 220153Z AUTO 00000KT 4SM BR FEW023 BKN028 OVC100 10/09
A2994 RMK AO2 RAE0057 SLP141 P0000 T01000089 $





000
SAUS41 KLWX 220158
MTRDMH
METAR KDMH 220154Z AUTO 12/07 A2995 RMK AO1 SLP141 T01220072





000
SAUS41 KLWX 220155
MTRNAK
METAR KNAK 220154Z AUTO 33008KT 10SM OVC045 12/09 A2993 RMK AO2
SLP138 T01220094





000
SAUS41 KLWX 220141
MTRRSP
SPECI KRSP 220114Z AUTO 1/2SM FG VV001 08/08 A2994 RMK AO2 $





000
SAUS41 KLWX 220132
MTRRSP
SPECI KRSP 220105Z AUTO 1SM BR OVC003 08/07 A2994 RMK AO2 $





000
SAUS41 KLWX 220121
MTRRSP
METAR KRSP 220054Z AUTO 2SM BR OVC003 08/08 A2994 RMK AO2 RAB09E38
SLP149 P0001 T00830078 $





000
SAUS41 KLWX 220108
MTRRYT
SPECI KRYT 220107Z AUTO 00000KT 3SM BR FEW021 SCT028 OVC037 10/09
A2994 RMK AO2 RAE0057 P0000 $





000
SAUS41 KLWX 220106
MTRNAK
SPECI KNAK 220104Z AUTO 33007KT 10SM SCT017 OVC049 12/09 A2993 RMK
AO2 T01220094





000
SAUS41 KLWX 220104
MTRRSP
SPECI KRSP 220037Z AUTO 2SM -RA BR OVC003 09/07 A2994 RMK AO2 RAB09
P0001 $





000
SAUS41 KLWX 220100
MTRRYT
METAR KRYT 220053Z AUTO 00000KT 3SM -RA BR SCT016 BKN023 OVC037
10/09 A2994 RMK AO2 RAB26 SLP140 P0002 T01000089 $





000
SAUS41 KLWX 220100
MTRRYT
METAR KRYT 220053Z AUTO 00000KT 3SM -RA BR SCT016 BKN023 OVC037
10/09 A2994 RMK AO2 RAB26 SLP140 P0002 T01000089 $





000
SAUS41 KLWX 220058
MTRDMH
METAR KDMH 220054Z AUTO 12/08 A2994 RMK AO1 SLP139 T01220083





000
SAUS41 KLWX 220055
MTRNAK
METAR KNAK 220054Z AUTO 33007KT 10SM BKN016 OVC049 12/09 A2993 RMK
AO2 SLP136 T01220094





000
SAUS41 KLWX 220051
MTRRSP
SPECI KRSP 220024Z AUTO 1 1/2SM -RA BR OVC003 08/07 A2994 RMK AO2
RAB09 P0001 $





000
SAUS41 KLWX 220051
MTRRSP
SPECI KRSP 220024Z AUTO 1 1/2SM -RA BR OVC003 08/07 A2994 RMK AO2
RAB09 P0001 $





000
SAUS41 KLWX 220045
MTRRYT
SPECI KRYT 220038Z AUTO 00000KT 2 1/2SM -RA BR FEW005 OVC016 10/08
A2994 RMK AO2 RAB26 P0001 $





000
SAUS41 KLWX 220045
MTRRYT
SPECI KRYT 220038Z AUTO 00000KT 2 1/2SM -RA BR FEW005 OVC016 10/08
A2994 RMK AO2 RAB26 P0001 $





000
SAUS41 KLWX 220041
MTRNAK
SPECI KNAK 220040Z AUTO 33007KT 10SM OVC016 12/09 A2993 RMK AO2
T01220094





000
SAUS41 KLWX 220041
MTRNAK
SPECI KNAK 220040Z AUTO 33007KT 10SM OVC016 12/09 A2993 RMK AO2
T01220094





000
SAUS41 KLWX 220032
MTRRSP
SPECI KRSP 220005Z AUTO 1 1/4SM BR OVC005 08/07 A2993 RMK AO2 $





000
SAUS41 KLWX 220032
MTRRSP
SPECI KRSP 220005Z AUTO 1 1/4SM BR OVC005 08/07 A2993 RMK AO2 $





000
SAUS41 KLWX 220025
MTRNAK
SPECI KNAK 220024Z AUTO 32008KT 10SM OVC014 12/10 A2994 RMK AO2
T01220100





000
SAUS41 KLWX 220025
MTRNAK
SPECI KNAK 220024Z AUTO 32008KT 10SM OVC014 12/10 A2994 RMK AO2
T01220100





000
SAUS41 KLWX 220021
MTRRSP
METAR KRSP 212354Z AUTO 2 1/2SM BR OVC005 08/07 A2994 RMK AO2 SLP148
T00830072 10094 20083 53009 $





000
SAUS41 KLWX 220021
MTRRSP
METAR KRSP 212354Z AUTO 2 1/2SM BR OVC005 08/07 A2994 RMK AO2 SLP148
T00830072 10094 20083 53009 $





000
SAUS41 KLWX 220000
MTRRYT
METAR KRYT 212353Z AUTO 00000KT 8SM FEW011 OVC020 11/08 A2993 RMK
AO2 SLP138 T01110078 10122 20111 53006 $





000
SAUS41 KLWX 220000
MTRRYT
METAR KRYT 212353Z AUTO 00000KT 8SM FEW011 OVC020 11/08 A2993 RMK
AO2 SLP138 T01110078 10122 20111 53006 $





000
SAUS41 KLWX 212358
MTRDMH
METAR KDMH 212354Z AUTO 12/08 A2995 RMK AO1 SLP142 60008 T01220083
10122 20094 53004





000
SAUS41 KLWX 212358
MTRDMH
METAR KDMH 212354Z AUTO 12/08 A2995 RMK AO1 SLP142 60008 T01220083
10122 20094 53004





000
SAUS41 KLWX 212355
MTRNAK
METAR KNAK 212354Z AUTO 34006KT 10SM OVC017 12/10 A2994 RMK AO2
SLP139 60007 T01220100 10122 20106 53005





000
SAUS41 KLWX 212355
MTRNAK
METAR KNAK 212354Z AUTO 34006KT 10SM OVC017 12/10 A2994 RMK AO2
SLP139 60007 T01220100 10122 20106 53005





000
SAUS41 KLWX 212321
MTRRSP
METAR KRSP 212254Z AUTO 4SM BR OVC007 09/07 A2992 RMK AO2 SLP142
T00890072 $





000
SAUS41 KLWX 212321
MTRRSP
METAR KRSP 212254Z AUTO 4SM BR OVC007 09/07 A2992 RMK AO2 SLP142
T00890072 $





000
SAUS41 KLWX 212312
MTRNAK
SPECI KNAK 212310Z AUTO 34004KT 10SM BKN019 OVC045 12/09 A2994 RMK
AO2 T01220094





000
SAUS41 KLWX 212312
MTRNAK
SPECI KNAK 212310Z AUTO 34004KT 10SM BKN019 OVC045 12/09 A2994 RMK
AO2 T01220094





000
SAUS41 KLWX 212300
MTRRYT
METAR KRYT 212253Z AUTO 00000KT 8SM OVC016 11/07 A2992 RMK AO2
SLP133 T01110072 $





000
SAUS41 KLWX 212258
MTRDMH
METAR KDMH 212254Z AUTO 12/08 A2994 RMK AO1 SLP140 T01170078





000
SAUS41 KLWX 212255
MTRNAK
METAR KNAK 212254Z AUTO 35004KT 10SM SCT019 OVC045 12/09 A2993 RMK
AO2 SLP137 T01170089





000
SAUS41 KLWX 212255
MTRNAK
METAR KNAK 212254Z AUTO 35004KT 10SM SCT019 OVC045 12/09 A2993 RMK
AO2 SLP137 T01170089





000
SAUS41 KLWX 212226
MTRNAK
SPECI KNAK 212225Z AUTO 01004KT 10SM OVC016 12/09 A2992 RMK AO2
T01170089





000
SAUS41 KLWX 212226
MTRNAK
SPECI KNAK 212225Z AUTO 01004KT 10SM OVC016 12/09 A2992 RMK AO2
T01170089





000
SAUS41 KLWX 212221
MTRRSP
METAR KRSP 212154Z AUTO 3SM BR OVC007 09/07 A2992 RMK AO2 SLP139
T00890067 $





000
SAUS41 KLWX 212221
MTRRSP
METAR KRSP 212154Z AUTO 3SM BR OVC007 09/07 A2992 RMK AO2 SLP139
T00890067 $





000
SAUS41 KLWX 212211
MTRNAK
SPECI KNAK 212209Z AUTO 01006KT 10SM OVC014 12/09 A2992 RMK AO2
T01170094





000
SAUS41 KLWX 212211
MTRNAK
SPECI KNAK 212209Z AUTO 01006KT 10SM OVC014 12/09 A2992 RMK AO2
T01170094





000
SAUS41 KLWX 212200
MTRRYT
METAR KRYT 212153Z AUTO 00000KT 10SM OVC019 12/07 A2991 RMK AO2
SLP131 T01170072 $





000
SAUS41 KLWX 212158
MTRDMH
METAR KDMH 212154Z AUTO 11/08 A2993 RMK AO1 SLP135 T01110083





000
SAUS41 KLWX 212158
MTRDMH
METAR KDMH 212154Z AUTO 11/08 A2993 RMK AO1 SLP135 T01110083





000
SAUS41 KLWX 212155
MTRNAK
METAR KNAK 212154Z AUTO 36004KT 10SM OVC016 12/09 A2992 RMK AO2
SLP133 T01170094





000
SAUS41 KLWX 212155
MTRNAK
METAR KNAK 212154Z AUTO 36004KT 10SM OVC016 12/09 A2992 RMK AO2
SLP133 T01170094





000
SAUS41 KLWX 212121
MTRRSP
METAR KRSP 212054Z AUTO 7SM OVC009 09/07 A2991 RMK AO2 SLP137
T00890067 56010 $





000
SAUS41 KLWX 212111
MTRRSP
SPECI KRSP 212044Z AUTO 8SM BKN009 OVC013 09/06 A2991 RMK AO2 $





000
SAUS41 KLWX 212106
MTRNAK
SPECI KNAK 212104Z AUTO 05007KT 10SM BKN017 OVC055 12/09 A2992 RMK
AO2 T01170094





000
SAUS41 KLWX 212059
MTRRYT
METAR KRYT 212053Z AUTO 00000KT 10SM OVC021 12/07 A2991 RMK AO2
SLP131 T01170072 56011 $





000
SAUS41 KLWX 212058
MTRDMH
METAR KDMH 212054Z AUTO 11/08 A2994 RMK AO1 SLP139 60008 T01110083
56017





000
SAUS41 KLWX 212056
MTRNAK
METAR KNAK 212054Z AUTO 04005KT 10SM SCT017 OVC055 12/09 A2992 RMK
AO2 RAE27 SLP134 P0002 60007 T01170094 58021





000
SAUS41 KLWX 212056
MTRNAK
METAR KNAK 212054Z AUTO 04005KT 10SM SCT017 OVC055 12/09 A2992 RMK
AO2 RAE27 SLP134 P0002 60007 T01170094 58021





000
SAUS41 KLWX 212034
MTRNAK
SPECI KNAK 212033Z AUTO 05004KT 10SM SCT016 SCT020 OVC055 11/09
A2993 RMK AO2 RAE27 P0001 T01110089





000
SAUS41 KLWX 212021
MTRRSP
METAR KRSP 211954Z AUTO 6SM HZ OVC011 09/06 A2992 RMK AO2 SLP139
T00940061 $





000
SAUS41 KLWX 212021
MTRRSP
METAR KRSP 211954Z AUTO 6SM HZ OVC011 09/06 A2992 RMK AO2 SLP139
T00940061 $





000
SAUS41 KLWX 212000
MTRRYT
METAR KRYT 211953Z AUTO 00000KT 10SM OVC019 12/07 A2992 RMK AO2
SLP131 T01170072 $





000
SAUS41 KLWX 212000
MTRRYT
METAR KRYT 211953Z AUTO 00000KT 10SM OVC019 12/07 A2992 RMK AO2
SLP131 T01170072 $





000
SAUS41 KLWX 212000
MTRNAK
SPECI KNAK 211959Z AUTO 04004KT 5SM -RA BR FEW009 BKN013 OVC060
11/09 A2994 RMK AO2 P0001 T01060089





000
SAUS41 KLWX 211958
MTRDMH
METAR KDMH 211954Z AUTO 11/09 A2995 RMK AO1 SLP142 P0002 T01060089





000
SAUS41 KLWX 211958
MTRDMH
METAR KDMH 211954Z AUTO 11/09 A2995 RMK AO1 SLP142 P0002 T01060089





000
SAUS41 KLWX 211957
MTRRSP
SPECI KRSP 211930Z AUTO 10SM OVC011 09/06 A2992 RMK AO2 $





000
SAUS41 KLWX 211957
MTRRSP
SPECI KRSP 211930Z AUTO 10SM OVC011 09/06 A2992 RMK AO2 $





000
SAUS41 KLWX 211956
MTRNAK
METAR KNAK 211954Z AUTO 04005KT 6SM -RA BR SCT013 BKN050 OVC060
11/09 A2995 RMK AO2 SLP143 P0002 T01110089





000
SAUS41 KLWX 211956
MTRNAK
METAR KNAK 211954Z AUTO 04005KT 6SM -RA BR SCT013 BKN050 OVC060
11/09 A2995 RMK AO2 SLP143 P0002 T01110089





000
SAUS41 KLWX 211930
MTRNAK
SPECI KNAK 211929Z AUTO 05007KT 5SM -RA BR SCT011 OVC060 11/09 A2995
RMK AO2 P0002 T01110089





000
SAUS41 KLWX 211930
MTRNAK
SPECI KNAK 211929Z AUTO 05007KT 5SM -RA BR SCT011 OVC060 11/09 A2995
RMK AO2 P0002 T01110089





000
SAUS41 KLWX 211921
MTRRSP
METAR KRSP 211854Z AUTO 7SM OVC007 09/07 A2993 RMK AO2 CIG 005V010
SLP143 T00890067 $





000
SAUS41 KLWX 211908
MTRNAK
SPECI KNAK 211907Z AUTO VRB03KT 5SM -RA BR BKN012 BKN030 OVC040
11/09 A2996 RMK AO2 P0000 T01060089





000
SAUS41 KLWX 211908
MTRRYT
SPECI KRYT 211901Z AUTO 00000KT 10SM BKN021 BKN031 OVC040 12/07
A2993 RMK AO2 $





000
SAUS41 KLWX 211908
MTRRYT
SPECI KRYT 211901Z AUTO 00000KT 10SM BKN021 BKN031 OVC040 12/07
A2993 RMK AO2 $





000
SAUS41 KLWX 211908
MTRNAK
SPECI KNAK 211907Z AUTO VRB03KT 5SM -RA BR BKN012 BKN030 OVC040
11/09 A2996 RMK AO2 P0000 T01060089





000
SAUS41 KLWX 211900
MTRRYT
METAR KRYT 211853Z AUTO 00000KT 10SM SCT021 BKN031 OVC042 12/07
A2993 RMK AO2 SLP136 T01220072 $





000
SAUS41 KLWX 211900
MTRRYT
METAR KRYT 211853Z AUTO 00000KT 10SM SCT021 BKN031 OVC042 12/07
A2993 RMK AO2 SLP136 T01220072 $





000
SAUS41 KLWX 211858
MTRDMH
METAR KDMH 211854Z AUTO 10/08 A2997 RMK AO1 SLP148 P0006 T01000083





000
SAUS41 KLWX 211856
MTRNAK
METAR KNAK 211854Z AUTO 08006KT 5SM -RA BR SCT012 BKN028 OVC075
11/09 A2996 RMK AO2 SLP147 P0003 T01110089





000
SAUS41 KLWX 211837
MTRNAK
SPECI KNAK 211836Z AUTO VRB05KT 5SM -RA BR FEW012 BKN029 OVC075
11/08 A2997 RMK AO2 P0002 T01060083





000
SAUS41 KLWX 211837
MTRNAK
SPECI KNAK 211836Z AUTO VRB05KT 5SM -RA BR FEW012 BKN029 OVC075
11/08 A2997 RMK AO2 P0002 T01060083





000
SAUS41 KLWX 211831
MTRRYT
SPECI KRYT 211824Z AUTO VRB03KT 10SM SCT019 BKN037 OVC044 12/07
A2994 RMK AO2 $





000
SAUS41 KLWX 211831
MTRRYT
SPECI KRYT 211824Z AUTO VRB03KT 10SM SCT019 BKN037 OVC044 12/07
A2994 RMK AO2 $





000
SAUS41 KLWX 211821
MTRRSP
METAR KRSP 211754Z AUTO 4SM HZ BKN007 OVC012 09/06 A2994 RMK AO2 CIG
005V009 SLP147 60005 T00890061 10094 20072 56021 $





000
SAUS41 KLWX 211821
MTRRSP
METAR KRSP 211754Z AUTO 4SM HZ BKN007 OVC012 09/06 A2994 RMK AO2 CIG
005V009 SLP147 60005 T00890061 10094 20072 56021 $





000
SAUS41 KLWX 211810
MTRNAK
SPECI KNAK 211809Z AUTO 06005KT 4SM -RA BR FEW010 BKN035 OVC042
10/09 A2997 RMK AO2 P0001 T01000089





000
SAUS41 KLWX 211810
MTRNAK
SPECI KNAK 211809Z AUTO 06005KT 4SM -RA BR FEW010 BKN035 OVC042
10/09 A2997 RMK AO2 P0001 T01000089





000
SAUS41 KLWX 211800
MTRRYT
METAR KRYT 211753Z AUTO 00000KT 10SM BKN019 OVC045 12/07 A2995 RMK
AO2 SLP142 60002 T01170067 10117 20094 58022 $





000
SAUS41 KLWX 211800
MTRRYT
METAR KRYT 211753Z AUTO 00000KT 10SM BKN019 OVC045 12/07 A2995 RMK
AO2 SLP142 60002 T01170067 10117 20094 58022 $





000
SAUS41 KLWX 211758
MTRDMH
METAR KDMH 211754Z AUTO 10/08 A2999 RMK AO1 SLP156 P0002 60002
T01000078 10144 20100 58019





000
SAUS41 KLWX 211758
MTRDMH
METAR KDMH 211754Z AUTO 10/08 A2999 RMK AO1 SLP156 P0002 60002
T01000078 10144 20100 58019





000
SAUS41 KLWX 211755
MTRNAK
METAR KNAK 211754Z AUTO 06006KT 3SM -RA BR SCT009 BKN014 OVC043
10/08 A2998 RMK AO2 SLP155 P0010 60024 T01000083 10150 20100 58016





000
SAUS41 KLWX 211750
MTRNAK
SPECI KNAK 211749Z AUTO 06006KT 2SM RA BR FEW009 SCT014 OVC043 10/08
A2999 RMK AO2 P0010





000
SAUS41 KLWX 211750
MTRNAK
SPECI KNAK 211749Z AUTO 06006KT 2SM RA BR FEW009 SCT014 OVC043 10/08
A2999 RMK AO2 P0010





000
SAUS41 KLWX 211745
MTRNAK
SPECI KNAK 211744Z AUTO 05005KT 1 3/4SM RA BR SCT009 BKN014 OVC045
10/08 A2999 RMK AO2 P0009 T01000083





000
SAUS41 KLWX 211741
MTRRSP
SPECI KRSP 211714Z AUTO 8SM BKN007 BKN010 OVC049 09/07 A2995 RMK AO2
$





000
SAUS41 KLWX 211740
MTRNAK
SPECI KNAK 211739Z AUTO 07004KT 2 1/2SM RA BR SCT010 BKN013 OVC045
10/08 A2999 RMK AO2 P0007 T01000083





000
SAUS41 KLWX 211734
MTRRYT
SPECI KRYT 211727Z AUTO VRB04KT 10SM BKN015 BKN045 OVC065 11/07
A2996 RMK AO2 $





000
SAUS41 KLWX 211721
MTRRSP
METAR KRSP 211654Z AUTO 9SM FEW007 OVC049 09/07 A2996 RMK AO2 SLP153
T00890067 $





000
SAUS41 KLWX 211721
MTRRSP
METAR KRSP 211654Z AUTO 9SM FEW007 OVC049 09/07 A2996 RMK AO2 SLP153
T00890067 $





000
SAUS41 KLWX 211702
MTRNAK
SPECI KNAK 211701Z AUTO 06004KT 2SM -RA BR FEW009 SCT048 OVC060
10/08 A3000 RMK AO2 P0001 T01000078





000
SAUS41 KLWX 211702
MTRNAK
SPECI KNAK 211701Z AUTO 06004KT 2SM -RA BR FEW009 SCT048 OVC060
10/08 A3000 RMK AO2 P0001 T01000078





000
SAUS41 KLWX 211700
MTRRYT
METAR KRYT 211653Z AUTO 03004KT 10SM FEW050 OVC065 11/07 A2998 RMK
AO2 RAE1557 SLP154 P0000 T01060067 $





000
SAUS41 KLWX 211700
MTRRYT
METAR KRYT 211653Z AUTO 03004KT 10SM FEW050 OVC065 11/07 A2998 RMK
AO2 RAE1557 SLP154 P0000 T01060067 $





000
SAUS41 KLWX 211658
MTRDMH
METAR KDMH 211654Z AUTO 11/06 A3002 RMK AO1 SLP165 T01110061





000
SAUS41 KLWX 211656
MTRNAK
METAR KNAK 211654Z AUTO 07005KT 2SM -RA BR SCT010 SCT050 OVC060
10/08 A3001 RMK AO2 SLP164 P0008 T01000078





000
SAUS41 KLWX 211656
MTRNAK
METAR KNAK 211654Z AUTO 07005KT 2SM -RA BR SCT010 SCT050 OVC060
10/08 A3001 RMK AO2 SLP164 P0008 T01000078





000
SAUS41 KLWX 211644
MTRNAK
SPECI KNAK 211643Z AUTO 11004KT 3SM -RA BR FEW010 OVC060 10/08 A3001
RMK AO2 P0007 T01000078





000
SAUS41 KLWX 211635
MTRNAK
SPECI KNAK 211633Z AUTO VRB03KT 2 1/2SM -RA OVC060 10/07 A3002 RMK
AO2 P0006 T01000072





000
SAUS41 KLWX 211629
MTRRSP
SPECI KRSP 211601Z AUTO 9SM FEW005 BKN045 OVC050 08/06 A2998 RMK AO2
$





000
SAUS41 KLWX 211625
MTRNAK
SPECI KNAK 211624Z AUTO 08003KT 3SM -RA BR OVC060 10/08 A3002 RMK
AO2 P0005 T01000078





000
SAUS41 KLWX 211621
MTRRSP
METAR KRSP 211554Z AUTO 10SM FEW041 OVC050 08/06 A2998 RMK AO2
RAB1457E09B34E46 SLP162 P0000 T00780056 $





000
SAUS41 KLWX 211621
MTRRSP
METAR KRSP 211554Z AUTO 10SM FEW041 OVC050 08/06 A2998 RMK AO2
RAB1457E09B34E46 SLP162 P0000 T00780056 $





000
SAUS41 KLWX 211613
MTRNAK
SPECI KNAK 211611Z AUTO 08003KT 2 1/2SM RA OVC060 10/07 A3003 RMK
AO2 P0003 T01000067





000
SAUS41 KLWX 211600
MTRRYT
METAR KRYT 211553Z AUTO 00000KT 9SM -RA OVC065 10/07 A3000 RMK AO2
RAE1458B21 SLP160 P0000 T01000067 $





000
SAUS41 KLWX 211558
MTRDMH
METAR KDMH 211554Z AUTO 11/06 A3004 RMK AO1 SLP172 T01110061





000
SAUS41 KLWX 211555
MTRNAK
METAR KNAK 211554Z AUTO 12003KT 3SM -RA SCT050 OVC070 11/07 A3003
RMK AO2 SLP170 P0004 T01060067





000
SAUS41 KLWX 211550
MTRNAK
SPECI KNAK 211549Z AUTO VRB03KT 2 1/2SM -RA SCT055 OVC070 11/07
A3003 RMK AO2 P0003





000
SAUS41 KLWX 211521
MTRRSP
METAR KRSP 211454Z AUTO 9SM FEW022 BKN034 OVC042 08/06 A3001 RMK AO2
RAE35 SLP171 P0001 60005 T00780056 50002 $





000
SAUS41 KLWX 211500
MTRRYT
METAR KRYT 211453Z AUTO 00000KT 7SM -RA FEW028 OVC039 10/07 A3002
RMK AO2 SLP167 P0001 60002 T01000072 50003 $





000
SAUS41 KLWX 211458
MTRDMH
METAR KDMH 211454Z AUTO 12/05 A3005 RMK AO1 SLP174 T01220050 53014





000
SAUS41 KLWX 211458
MTRDMH
METAR KDMH 211454Z AUTO 12/05 A3005 RMK AO1 SLP174 T01220050 53014





000
SAUS41 KLWX 211455
MTRNAK
METAR KNAK 211454Z AUTO 08003KT 8SM -RA SCT043 BKN055 OVC075 13/07
A3003 RMK AO2 SLP171 P0002 60002 T01280067 51015





000
SAUS41 KLWX 211431
MTRRSP
SPECI KRSP 211404Z AUTO 3SM -RA BR FEW005 OVC032 08/06 A3001 RMK AO2
P0000 $





000
SAUS41 KLWX 211421
MTRRSP
METAR KRSP 211354Z AUTO 2 1/2SM -RA BR OVC032 08/06 A3001 RMK AO2
SLP172 P0003 T00780061 $





000
SAUS41 KLWX 211400
MTRRYT
METAR KRYT 211353Z AUTO 05003KT 6SM -RA OVC042 10/07 A3002 RMK AO2
RAE03B28 SLP167 P0001 T01000072 $





000
SAUS41 KLWX 211358
MTRDMH
METAR KDMH 211354Z AUTO 13/07 A3003 RMK AO1 SLP168 T01280067





000
SAUS41 KLWX 211355
MTRNAK
METAR KNAK 211354Z AUTO 11005KT 10SM -RA BKN055 OVC085 14/07 A3002
RMK AO2 SLP166 P0000 T01390067





000
SAUS41 KLWX 211355
MTRNAK
METAR KNAK 211354Z AUTO 11005KT 10SM -RA BKN055 OVC085 14/07 A3002
RMK AO2 SLP166 P0000 T01390067





000
SAUS41 KLWX 211321
MTRRSP
METAR KRSP 211254Z AUTO 9SM -RA OVC038 08/05 A3001 RMK AO2 RAB37
SLP170 P0001 T00830050 $





000
SAUS41 KLWX 211321
MTRRSP
METAR KRSP 211254Z AUTO 9SM -RA OVC038 08/05 A3001 RMK AO2 RAB37
SLP170 P0001 T00830050 $





000
SAUS41 KLWX 211301
MTRRYT
METAR KRYT 211253Z AUTO 00000KT 10SM -RA OVC049 10/07 A3000 RMK AO2
RAB23 SLP162 P0000 T01000072 $





000
SAUS41 KLWX 211259
MTRDMH
METAR KDMH 211254Z AUTO 14/04 A3002 RMK AO1 SLP164 T01390039





000
SAUS41 KLWX 211255
MTRNAK
METAR KNAK 211254Z AUTO 08008KT 10SM -RA BKN055 OVC090 14/05 A3000
RMK AO2 RAB54 SLP161 P0000 T01440050





000
SAUS41 KLWX 211221
MTRRSP
METAR KRSP 211154Z AUTO 10SM OVC040 08/04 A3000 RMK AO2 RAE18B43E52
SLP168 P0000 60002 70002 T00830039 10106 20083 53002 $





000
SAUS41 KLWX 211221
MTRRSP
METAR KRSP 211154Z AUTO 10SM OVC040 08/04 A3000 RMK AO2 RAE18B43E52
SLP168 P0000 60002 70002 T00830039 10106 20083 53002 $





000
SAUS41 KLWX 211200
MTRRYT
METAR KRYT 211153Z AUTO 00000KT 10SM OVC047 10/08 A3001 RMK AO2
RAB10E51 SLP160 P0002 60003 70004 T01000083 10106 20094 53003 $





000
SAUS41 KLWX 211158
MTRDMH
METAR KDMH 211154Z AUTO 14/06 A3001 RMK AO1 SLP160 T01440061 10156
20139 55002





000
SAUS41 KLWX 211158
MTRDMH
METAR KDMH 211154Z AUTO 14/06 A3001 RMK AO1 SLP160 T01440061 10156
20139 55002





000
SAUS41 KLWX 211155
MTRNAK
METAR KNAK 211154Z AUTO 11010KT 10SM BKN060 BKN075 OVC100 15/04
A2999 RMK AO2 SLP156 T01500039 10161 20150 56002





000
SAUS41 KLWX 211155
MTRNAK
METAR KNAK 211154Z AUTO 11010KT 10SM BKN060 BKN075 OVC100 15/04
A2999 RMK AO2 SLP156 T01500039 10161 20150 56002





000
SAUS41 KLWX 211121
MTRRSP
METAR KRSP 211054Z AUTO 10SM -RA OVC036 08/04 A2999 RMK AO2 SLP163
P0001 T00830039 $





000
SAUS41 KLWX 211121
MTRRSP
METAR KRSP 211054Z AUTO 10SM -RA OVC036 08/04 A2999 RMK AO2 SLP163
P0001 T00830039 $





000
SAUS41 KLWX 211100
MTRRYT
METAR KRYT 211053Z AUTO 00000KT 10SM SCT065 OVC085 10/08 A2998 RMK
AO2 RAE00B18E38 SLP152 P0001 T01000078 $





000
SAUS41 KLWX 211100
MTRRYT
METAR KRYT 211053Z AUTO 00000KT 10SM SCT065 OVC085 10/08 A2998 RMK
AO2 RAE00B18E38 SLP152 P0001 T01000078 $





000
SAUS41 KLWX 211058
MTRDMH
METAR KDMH 211054Z AUTO 14/06 A3000 RMK AO1 SLP160 T01390056





000
SAUS41 KLWX 211058
MTRDMH
METAR KDMH 211054Z AUTO 14/06 A3000 RMK AO1 SLP160 T01390056





000
SAUS41 KLWX 211055
MTRNAK
METAR KNAK 211054Z AUTO 11010KT 10SM SCT060 15/06 A2999 RMK AO2
SLP158 T01500056





000
SAUS41 KLWX 211055
MTRNAK
METAR KNAK 211054Z AUTO 11010KT 10SM SCT060 15/06 A2999 RMK AO2
SLP158 T01500056





000
SAUS41 KLWX 211021
MTRRSP
METAR KRSP 210954Z AUTO 10SM -RA FEW040 SCT065 OVC080 08/04 A2999
RMK AO2 RAE17B47 SLP160 P0000 T00830039 $





000
SAUS41 KLWX 211021
MTRRSP
METAR KRSP 210954Z AUTO 10SM -RA FEW040 SCT065 OVC080 08/04 A2999
RMK AO2 RAE17B47 SLP160 P0000 T00830039 $





000
SAUS41 KLWX 211000
MTRRYT
METAR KRYT 210953Z AUTO 00000KT 10SM -RA OVC085 09/08 A2998 RMK AO2
RAB0858 SLP151 P0000 T00940078 $





000
SAUS41 KLWX 210957
MTRDMH
METAR KDMH 210954Z AUTO 14/06 A3001 RMK AO1 SLP161 T01390056





000
SAUS41 KLWX 210957
MTRDMH
METAR KDMH 210954Z AUTO 14/06 A3001 RMK AO1 SLP161 T01390056





000
SAUS41 KLWX 210955
MTRNAK
METAR KNAK 210954Z AUTO 09007KT 10SM FEW060 SCT110 16/07 A2999 RMK
AO2 SLP155 T01560067





000
SAUS41 KLWX 210921
MTRRSP
METAR KRSP 210854Z AUTO 10SM -RA OVC070 09/03 A2999 RMK AO2 RAB20
SLP161 P0001 60001 T00890033 56001 $





000
SAUS41 KLWX 210900
MTRRYT
METAR KRYT 210853Z AUTO 00000KT 10SM FEW060 BKN080 OVC095 10/07
A2999 RMK AO2 RAB43E53 SLP156 P0000 60000 T01000072 53001 $





000
SAUS41 KLWX 210900
MTRRYT
METAR KRYT 210853Z AUTO 00000KT 10SM FEW060 BKN080 OVC095 10/07
A2999 RMK AO2 RAB43E53 SLP156 P0000 60000 T01000072 53001 $





000
SAUS41 KLWX 210858
MTRDMH
METAR KDMH 210854Z AUTO 15/04 A3001 RMK AO1 SLP162 T01500044 53005





000
SAUS41 KLWX 210855
MTRNAK
METAR KNAK 210854Z AUTO 10006KT 10SM FEW065 BKN090 OVC110 16/06
A2999 RMK AO2 SLP158 T01560056 53001





000
SAUS41 KLWX 210821
MTRRSP
METAR KRSP 210754Z AUTO 10SM OVC085 10/02 A3000 RMK AO2 SLP163
T01000022 $





000
SAUS41 KLWX 210821
MTRRSP
METAR KRSP 210754Z AUTO 10SM OVC085 10/02 A3000 RMK AO2 SLP163
T01000022 $





000
SAUS41 KLWX 210800
MTRRYT
METAR KRYT 210753Z AUTO 00000KT 10SM OVC100 10/07 A2999 RMK AO2
SLP155 T01000072 $





000
SAUS41 KLWX 210758
MTRDMH
METAR KDMH 210754Z AUTO 15/03 A2999 RMK AO1 SLP156 T01500033





000
SAUS41 KLWX 210758
MTRDMH
METAR KDMH 210754Z AUTO 15/03 A2999 RMK AO1 SLP156 T01500033





000
SAUS41 KLWX 210755
MTRNAK
METAR KNAK 210754Z AUTO 09007KT 10SM OVC070 16/05 A2998 RMK AO2
SLP154 T01610050





000
SAUS41 KLWX 210721
MTRRSP
METAR KRSP 210654Z AUTO 10SM OVC100 11/01 A2999 RMK AO2 SLP158
T01060011 $





000
SAUS41 KLWX 210700
MTRRYT
METAR KRYT 210653Z AUTO 00000KT 10SM BKN110 10/07 A2997 RMK AO2
SLP147 T01000067 $





000
SAUS41 KLWX 210700
MTRRYT
METAR KRYT 210653Z AUTO 00000KT 10SM BKN110 10/07 A2997 RMK AO2
SLP147 T01000067 $





000
SAUS41 KLWX 210658
MTRDMH
METAR KDMH 210654Z AUTO 16/03 A3001 RMK AO1 SLP161 T01560033





000
SAUS41 KLWX 210655
MTRNAK
METAR KNAK 210654Z AUTO 07006KT 10SM OVC070 16/06 A2999 RMK AO2
SLP158 T01610056





000
SAUS41 KLWX 210655
MTRNAK
METAR KNAK 210654Z AUTO 07006KT 10SM OVC070 16/06 A2999 RMK AO2
SLP158 T01610056





000
SAUS41 KLWX 210621
MTRRSP
METAR KRSP 210554Z AUTO 10SM BKN100 11/02 A3000 RMK AO2 SLP162
T01060017 10117 20094 56008 $





000
SAUS41 KLWX 210621
MTRRSP
METAR KRSP 210554Z AUTO 10SM BKN100 11/02 A3000 RMK AO2 SLP162
T01060017 10117 20094 56008 $





000
SAUS41 KLWX 210600
MTRRYT
METAR KRYT 210553Z AUTO 00000KT 10SM SCT110 10/07 A2999 RMK AO2
SLP155 T01000067 10156 20094 56009 $





000
SAUS41 KLWX 210600
MTRRYT
METAR KRYT 210553Z AUTO 00000KT 10SM SCT110 10/07 A2999 RMK AO2
SLP155 T01000067 10156 20094 56009 $





000
SAUS41 KLWX 210558
MTRDMH
METAR KDMH 210554Z AUTO 16/04 A3000 RMK AO1 SLP158 T01560039 10189
20156 56010





000
SAUS41 KLWX 210558
MTRDMH
METAR KDMH 210554Z AUTO 16/04 A3000 RMK AO1 SLP158 T01560039 10189
20156 56010





000
SAUS41 KLWX 210555
MTRNAK
METAR KNAK 210554Z AUTO 00000KT 10SM CLR 15/07 A2999 RMK AO2 SLP157
T01500067 10194 20150 56008





000
SAUS41 KLWX 210555
MTRNAK
METAR KNAK 210554Z AUTO 00000KT 10SM CLR 15/07 A2999 RMK AO2 SLP157
T01500067 10194 20150 56008





000
SAUS41 KLWX 210521
MTRRSP
METAR KRSP 210454Z AUTO 10SM CLR 11/02 A3000 RMK AO2 SLP163
T01060022 401610089 $





000
SAUS41 KLWX 210521
MTRRSP
METAR KRSP 210454Z AUTO 10SM CLR 11/02 A3000 RMK AO2 SLP163
T01060022 401610089 $





000
SAUS41 KLWX 210501 COR
MTRDMH
METAR KDMH 210454Z AUTO 16/04 A3001 RMK AO1 SLP161 T01610039
402390156





000
SAUS41 KLWX 210500
MTRRYT
METAR KRYT 210453Z AUTO 00000KT 10SM CLR 10/06 A3000 RMK AO2 SLP156
T01000061 401780094 $





000
SAUS41 KLWX 210459 COR
MTRDMH
METAR KDMH 210454Z AUTO 16/04 A3001 RMK AO1 SLP161 T01610039
402390156





000
SAUS41 KLWX 210458 COR
MTRNAK
METAR KNAK 210454Z AUTO 34003KT 10SM CLR 16/07 A2999 RMK AO2 SLP158
T01610072 402280156





000
SAUS41 KLWX 210456 COR
MTRNAK
METAR KNAK 210454Z AUTO 34003KT 10SM CLR 16/07 A2999 RMK AO2 SLP158
T01610072 402280156





000
SAUS41 KLWX 210421
MTRRSP
METAR KRSP 210354Z AUTO 10SM CLR 10/02 A3001 RMK AO2 SLP169
T01000022 $





000
SAUS41 KLWX 210400
MTRRYT
METAR KRYT 210353Z AUTO 00000KT 10SM CLR 09/06 A3001 RMK AO2 SLP161
T00940056 $





000
SAUS41 KLWX 210400
MTRRYT
METAR KRYT 210353Z AUTO 00000KT 10SM CLR 09/06 A3001 RMK AO2 SLP161
T00940056 $





000
SAUS41 KLWX 210358
MTRDMH
METAR KDMH 210354Z AUTO 16/04 A3001 RMK AO1 SLP163 T01610039





000
SAUS41 KLWX 210356
MTRNAK
METAR KNAK 210354Z AUTO 36006KT 10SM CLR 16/08 A3000 RMK AO2 SLP160
T01610078





000
SAUS41 KLWX 210321
MTRRSP
METAR KRSP 210254Z AUTO 10SM CLR 10/03 A3002 RMK AO2 SLP172
T01000028 58001 $





000
SAUS41 KLWX 210321
MTRRSP
METAR KRSP 210254Z AUTO 10SM CLR 10/03 A3002 RMK AO2 SLP172
T01000028 58001 $





000
SAUS41 KLWX 210300
MTRRYT
METAR KRYT 210253Z AUTO 00000KT 10SM CLR 11/06 A3002 RMK AO2 SLP166
T01060056 50004 $





000
SAUS41 KLWX 210258
MTRDMH
METAR KDMH 210254Z AUTO 17/04 A3003 RMK AO1 SLP168 T01670044 51011





000
SAUS41 KLWX 210255
MTRNAK
METAR KNAK 210254Z AUTO 01007KT 10SM CLR 17/07 A3002 RMK AO2 SLP166
T01720072 50010





000
SAUS41 KLWX 210255
MTRNAK
METAR KNAK 210254Z AUTO 01007KT 10SM CLR 17/07 A3002 RMK AO2 SLP166
T01720072 50010





000
SAUS41 KLWX 210221
MTRRSP
METAR KRSP 210154Z AUTO 10SM CLR 09/03 A3003 RMK AO2 SLP177
T00940033 $





000
SAUS41 KLWX 210200
MTRRYT
METAR KRYT 210153Z AUTO 00000KT 10SM CLR 11/06 A3003 RMK AO2 SLP170
T01060056 $





000
SAUS41 KLWX 210200
MTRRYT
METAR KRYT 210153Z AUTO 00000KT 10SM CLR 11/06 A3003 RMK AO2 SLP170
T01060056 $





000
SAUS41 KLWX 210158
MTRDMH
METAR KDMH 210154Z AUTO 17/04 A3003 RMK AO1 SLP168 T01720044





000
SAUS41 KLWX 210158
MTRDMH
METAR KDMH 210154Z AUTO 17/04 A3003 RMK AO1 SLP168 T01720044





000
SAUS41 KLWX 210155
MTRNAK
METAR KNAK 210154Z AUTO 01008KT 10SM CLR 18/07 A3002 RMK AO2 SLP166
T01780072





000
SAUS41 KLWX 210155
MTRNAK
METAR KNAK 210154Z AUTO 01008KT 10SM CLR 18/07 A3002 RMK AO2 SLP166
T01780072





000
SAUS41 KLWX 210121
MTRRSP
METAR KRSP 210054Z AUTO 10SM CLR 10/04 A3003 RMK AO2 SLP179
T01000039 $





000
SAUS41 KLWX 210121
MTRRSP
METAR KRSP 210054Z AUTO 10SM CLR 10/04 A3003 RMK AO2 SLP179
T01000039 $





000
SAUS41 KLWX 210100
MTRRYT
METAR KRYT 210053Z AUTO 35003KT 10SM CLR 12/04 A3002 RMK AO2 SLP164
T01220044 $





000
SAUS41 KLWX 210100
MTRRYT
METAR KRYT 210053Z AUTO 35003KT 10SM CLR 12/04 A3002 RMK AO2 SLP164
T01220044 $





000
SAUS41 KLWX 210058
MTRDMH
METAR KDMH 210054Z AUTO 18/05 A3002 RMK AO1 SLP164 T01780050





000
SAUS41 KLWX 210058
MTRDMH
METAR KDMH 210054Z AUTO 18/05 A3002 RMK AO1 SLP164 T01780050





000
SAUS41 KLWX 210055
MTRNAK
METAR KNAK 210054Z AUTO 01005KT 10SM CLR 18/08 A3000 RMK AO2 SLP161
T01830078





000
SAUS41 KLWX 210055
MTRNAK
METAR KNAK 210054Z AUTO 01005KT 10SM CLR 18/08 A3000 RMK AO2 SLP161
T01830078





000
SAUS41 KLWX 210021
MTRRSP
METAR KRSP 202354Z AUTO 10SM CLR 12/04 A3003 RMK AO2 SLP174
T01170044 10161 20117 53008 $





000
SAUS41 KLWX 210021
MTRRSP
METAR KRSP 202354Z AUTO 10SM CLR 12/04 A3003 RMK AO2 SLP174
T01170044 10161 20117 53008 $





000
SAUS41 KLWX 210000
MTRRYT
METAR KRYT 202353Z AUTO VRB05KT 10SM CLR 16/03 A3001 RMK AO2 SLP159
T01560028 10178 20156 53008 $





000
SAUS41 KLWX 210000
MTRRYT
METAR KRYT 202353Z AUTO VRB05KT 10SM CLR 16/03 A3001 RMK AO2 SLP159
T01560028 10178 20156 53008 $





000
SAUS41 KLWX 202358
MTRDMH
METAR KDMH 202354Z AUTO 19/04 A3000 RMK AO1 SLP157 T01890044 10211
20189 53010





000
SAUS41 KLWX 202358
MTRDMH
METAR KDMH 202354Z AUTO 19/04 A3000 RMK AO1 SLP157 T01890044 10211
20189 53010





000
SAUS41 KLWX 202355
MTRNAK
METAR KNAK 202354Z AUTO 33007KT 10SM CLR 19/07 A2998 RMK AO2 SLP155
60000 T01940072 10206 20189 53008





000
SAUS41 KLWX 202355
MTRNAK
METAR KNAK 202354Z AUTO 33007KT 10SM CLR 19/07 A2998 RMK AO2 SLP155
60000 T01940072 10206 20189 53008





000
SAUS41 KLWX 202321
MTRRSP
METAR KRSP 202254Z AUTO 10SM CLR 13/04 A3002 RMK AO2 SLP171
T01280039 $





000
SAUS41 KLWX 202321
MTRRSP
METAR KRSP 202254Z AUTO 10SM CLR 13/04 A3002 RMK AO2 SLP171
T01280039 $





000
SAUS41 KLWX 202300
MTRRYT
METAR KRYT 202253Z AUTO VRB04KT 10SM CLR 17/04 A2999 RMK AO2 SLP153
T01720039 $





000
SAUS41 KLWX 202300
MTRRYT
METAR KRYT 202253Z AUTO VRB04KT 10SM CLR 17/04 A2999 RMK AO2 SLP153
T01720039 $





000
SAUS41 KLWX 202258
MTRDMH
METAR KDMH 202254Z AUTO 20/04 A2998 RMK AO1 SLP152 T02000044





000
SAUS41 KLWX 202258
MTRDMH
METAR KDMH 202254Z AUTO 20/04 A2998 RMK AO1 SLP152 T02000044





000
SAUS41 KLWX 202255
MTRNAK
METAR KNAK 202254Z AUTO 33007KT 10SM CLR 20/07 A2997 RMK AO2 SLP151
T02000067





000
SAUS41 KLWX 202220
MTRRSP
METAR KRSP 202154Z AUTO 10SM CLR 14/03 A3001 RMK AO2 SLP168
T01440033 $





000
SAUS41 KLWX 202200
MTRRYT
METAR KRYT 202153Z AUTO VRB06KT 10SM CLR 17/04 A2999 RMK AO2 SLP152
T01720039 $





000
SAUS41 KLWX 202158
MTRDMH
METAR KDMH 202154Z AUTO 20/04 A2997 RMK AO1 SLP149 T02000044





000
SAUS41 KLWX 202155
MTRNAK
METAR KNAK 202154Z AUTO 31007KT 10SM CLR 20/07 A2996 RMK AO2 SLP147
T02000072





000
SAUS41 KLWX 202121
MTRRSP
METAR KRSP 202054Z AUTO 10SM CLR 15/03 A3000 RMK AO2 SLP164
T01500033 50001 $





000
SAUS41 KLWX 202059
MTRRYT
METAR KRYT 202053Z AUTO 01007KT 10SM CLR 18/06 A2998 RMK AO2 SLP150
T01780056 58005 $





000
SAUS41 KLWX 202058
MTRDMH
METAR KDMH 202054Z AUTO 21/06 A2997 RMK AO1 SLP147 T02060056 56005





000
SAUS41 KLWX 202058
MTRDMH
METAR KDMH 202054Z AUTO 21/06 A2997 RMK AO1 SLP147 T02060056 56005





000
SAUS41 KLWX 202055
MTRNAK
METAR KNAK 202054Z AUTO 32008KT 10SM CLR 21/07 A2996 RMK AO2 SLP146
60000 T02060072 56005





000
SAUS41 KLWX 202055
MTRNAK
METAR KNAK 202054Z AUTO 32008KT 10SM CLR 21/07 A2996 RMK AO2 SLP146
60000 T02060072 56005





000
SAUS41 KLWX 202020
MTRRSP
METAR KRSP 201954Z AUTO 10SM CLR 16/04 A3000 RMK AO2 SLP164
T01560044 $





000
SAUS41 KLWX 202020
MTRRSP
METAR KRSP 201954Z AUTO 10SM CLR 16/04 A3000 RMK AO2 SLP164
T01560044 $





000
SAUS41 KLWX 202000
MTRRYT
METAR KRYT 201953Z VRB05KT 10SM CLR 17/04 A2999 RMK AO2 SLP153
T01720044 $





000
SAUS41 KLWX 201958
MTRDMH
METAR KDMH 201954Z AUTO 21/06 A2997 RMK AO1 SLP147 T02060061





000
SAUS41 KLWX 201958
MTRDMH
METAR KDMH 201954Z AUTO 21/06 A2997 RMK AO1 SLP147 T02060061





000
SAUS41 KLWX 201955
MTRNAK
METAR KNAK 201954Z AUTO 31007KT 10SM CLR 20/07 A2996 RMK AO2 SLP148
T02000072





000
SAUS41 KLWX 201955
MTRNAK
METAR KNAK 201954Z AUTO 31007KT 10SM CLR 20/07 A2996 RMK AO2 SLP148
T02000072





000
SAUS41 KLWX 201921
MTRRSP
METAR KRSP 201854Z AUTO 10SM CLR 16/04 A3000 RMK AO2 SLP164
T01560044 $





000
SAUS41 KLWX 201900
MTRRYT
METAR KRYT 201853Z 03009G16KT 10SM CLR 17/04 A2999 RMK AO2 SLP152
T01720044 $





000
SAUS41 KLWX 201900
MTRRYT
METAR KRYT 201853Z 03009G16KT 10SM CLR 17/04 A2999 RMK AO2 SLP152
T01720044 $





000
SAUS41 KLWX 201858
MTRDMH
METAR KDMH 201854Z AUTO 21/06 A2997 RMK AO1 SLP149 T02060056





000
SAUS41 KLWX 201858
MTRDMH
METAR KDMH 201854Z AUTO 21/06 A2997 RMK AO1 SLP149 T02060056





000
SAUS41 KLWX 201855
MTRNAK
METAR KNAK 201854Z AUTO 32011KT 10SM CLR 20/07 A2997 RMK AO2
RAB03E07 SLP149 P0000 T02000072





000
SAUS41 KLWX 201855
MTRNAK
METAR KNAK 201854Z AUTO 32011KT 10SM CLR 20/07 A2997 RMK AO2
RAB03E07 SLP149 P0000 T02000072





000
SAUS41 KLWX 201840
MTRRYT
SPECI KRYT 201833Z VRB06KT 10SM FEW001 17/04 A2999 RMK AO2 $





000
SAUS41 KLWX 201840
MTRRYT
SPECI KRYT 201833Z VRB06KT 10SM FEW001 17/04 A2999 RMK AO2 $





000
SAUS41 KLWX 201821
MTRRSP
METAR KRSP 201754Z AUTO 10SM CLR 15/05 A3000 RMK AO2 SLP161
T01500050 10150 20100 58003 $





000
SAUS41 KLWX 201800
MTRRYT
METAR KRYT 201753Z VRB03KT 10SM CLR 16/04 A3000 RMK AO2 SLP154 60001
T01610044 10167 20128 58002 $





000
SAUS41 KLWX 201800
MTRRYT
METAR KRYT 201753Z VRB03KT 10SM CLR 16/04 A3000 RMK AO2 SLP154 60001
T01610044 10167 20128 58002 $





000
SAUS41 KLWX 201758
MTRDMH
METAR KDMH 201754Z AUTO 19/06 A2998 RMK AO1 SLP152 T01940056 10200
20161 57002





000
SAUS41 KLWX 201755
MTRNAK
METAR KNAK 201754Z AUTO 33009KT 10SM CLR 19/07 A2997 RMK AO2
RAB46E48 SLP152 P0000 60000 T01890072 10189 20167 58002





000
SAUS41 KLWX 201755
MTRNAK
METAR KNAK 201754Z AUTO 33009KT 10SM CLR 19/07 A2997 RMK AO2
RAB46E48 SLP152 P0000 60000 T01890072 10189 20167 58002





000
SAUS41 KLWX 201721
MTRRSP
METAR KRSP 201654Z AUTO 10SM CLR 14/05 A3001 RMK AO2 SLP163
T01440050 $





000
SAUS41 KLWX 201721
MTRRSP
METAR KRSP 201654Z AUTO 10SM CLR 14/05 A3001 RMK AO2 SLP163
T01440050 $





000
SAUS41 KLWX 201700
MTRRYT
METAR KRYT 201653Z VRB06G15KT 10SM CLR 16/06 A3001 RMK AO2 SLP156
T01610056 $





000
SAUS41 KLWX 201700
MTRRYT
METAR KRYT 201653Z VRB06G15KT 10SM CLR 16/06 A3001 RMK AO2 SLP156
T01610056 $





000
SAUS41 KLWX 201658
MTRDMH
METAR KDMH 201654Z AUTO 19/06 A2998 RMK AO1 SLP151 T01890061





000
SAUS41 KLWX 201658
MTRDMH
METAR KDMH 201654Z AUTO 19/06 A2998 RMK AO1 SLP151 T01890061





000
SAUS41 KLWX 201656
MTRNAK
METAR KNAK 201654Z AUTO 32011KT 10SM CLR 19/07 A2997 RMK AO2
RAB1558E07 SLP152 P0000 T01890072





000
SAUS41 KLWX 201656
MTRNAK
METAR KNAK 201654Z AUTO 32011KT 10SM CLR 19/07 A2997 RMK AO2
RAB1558E07 SLP152 P0000 T01890072





000
SAUS41 KLWX 201621
MTRRSP
METAR KRSP 201554Z AUTO 10SM FEW029 13/04 A3001 RMK AO2 SLP162
T01330044 $





000
SAUS41 KLWX 201600
MTRRYT
METAR KRYT 201553Z VRB03KT 10SM SCT039 16/04 A3000 RMK AO2 SLP154
T01560044 $





000
SAUS41 KLWX 201558
MTRDMH
METAR KDMH 201554Z AUTO 19/06 A2999 RMK AO1 SLP155 T01890056





000
SAUS41 KLWX 201555
MTRNAK
METAR KNAK 201554Z AUTO 32012KT 10SM FEW048 18/08 A2999 RMK AO2
RAE1457B32E50 SLP156 P0000 T01780078





000
SAUS41 KLWX 201529
MTRRSP
SPECI KRSP 201508Z AUTO 5SM HZ FEW029 13/05 A3000 RMK AO2 $





000
SAUS41 KLWX 201516
MTRRSP
METAR KRSP 201454Z AUTO 10SM BKN029 13/04 A3001 RMK AO2 SLP162
T01280044 $





000
SAUS41 KLWX 201516
MTRRSP
METAR KRSP 201454Z AUTO 10SM BKN029 13/04 A3001 RMK AO2 SLP162
T01280044 $





000
SAUS41 KLWX 201500
MTRRYT
METAR KRYT 201453Z 32008G17KT 150V050 10SM BKN037 14/04 A3001 RMK
AO2 SLP155 60001 T01390044 51009 $





000
SAUS41 KLWX 201458
MTRDMH
METAR KDMH 201454Z AUTO 18/06 A2999 RMK AO1 SLP154 T01780061 51005





000
SAUS41 KLWX 201455
MTRNAK
METAR KNAK 201454Z AUTO 31013KT 10SM -RA CLR 18/07 A2998 RMK AO2
RAB01E26B42 SLP154 P0000 60000 T01780072 50005





000
SAUS41 KLWX 201455
MTRNAK
METAR KNAK 201454Z AUTO 31013KT 10SM -RA CLR 18/07 A2998 RMK AO2
RAB01E26B42 SLP154 P0000 60000 T01780072 50005





000
SAUS41 KLWX 201415
MTRRSP
METAR KRSP 201354Z AUTO 10SM OVC025 11/05 RMK AO2 SLPNO T01110050 $





000
SAUS41 KLWX 201415
MTRRSP
METAR KRSP 201354Z AUTO 10SM OVC025 11/05 RMK AO2 SLPNO T01110050 $





000
SAUS41 KLWX 201400
MTRRYT
METAR KRYT 201353Z VRB03KT 10SM OVC037 13/05 A3000 RMK AO2 SLP151
T01330050 $





000
SAUS41 KLWX 201358
MTRDMH
METAR KDMH 201354Z AUTO 17/06 A2999 RMK AO1 SLP154 T01720056





000
SAUS41 KLWX 201355
MTRNAK
METAR KNAK 201354Z AUTO 33013KT 10SM CLR 17/07 A2999 RMK AO2
RAB1258E33 SLP156 P0000 T01670067





000
SAUS41 KLWX 201355
MTRNAK
METAR KNAK 201354Z AUTO 33013KT 10SM CLR 17/07 A2999 RMK AO2
RAB1258E33 SLP156 P0000 T01670067





000
SAUS41 KLWX 201315
MTRRSP
METAR KRSP 201254Z AUTO 10SM OVC025 10/05 RMK AO2 SLPNO T01000050 $





000
SAUS41 KLWX 201300
MTRRYT
METAR KRYT 201253Z AUTO VRB04KT 10SM OVC035 13/05 A3000 RMK AO2
SLP153 P0001 T01280050 PWINO $





000
SAUS41 KLWX 201259
MTRNAK
METAR KNAK 201254Z AUTO 32015G22KT 10SM CLR 17/08 A2998 RMK AO2
SLP154 T01670078





000
SAUS41 KLWX 201258
MTRDMH
METAR KDMH 201254Z AUTO 17/06 A2999 RMK AO1 SLP154 T01670056





000
SAUS41 KLWX 201258
MTRDMH
METAR KDMH 201254Z AUTO 17/06 A2999 RMK AO1 SLP154 T01670056





000
SAUS41 KLWX 201215
MTRRSP
METAR KRSP 201154Z AUTO 10SM BKN027 10/04 RMK AO2 SLPNO T01000044
10122 20089 $





000
SAUS41 KLWX 201215
MTRRSP
METAR KRSP 201154Z AUTO 10SM BKN027 10/04 RMK AO2 SLPNO T01000044
10122 20089 $





    US Dept of Commerce
    National Oceanic and Atmospheric Administration
    National Weather Service
    1325 East West Highway
    Silver Spring, MD 20910
    Page Author: NWS Internet Services Team
Disclaimer
Information Quality
Credits
Glossary
Privacy Policy
Freedom of Information Act (FOIA)
About Us
Career Opportunities